sensor_id;sensor_type;location;lat;lon;timestamp;P1;durP1;ratioP1;P2;durP2;ratioP2
5622;SDS011;2833;50.432;10.706;2022-10-18T00:01:37;10.53;;;4.27;;
5622;SDS011;2833;50.432;10.706;2022-10-18T00:04:02;6.40;;;5.27;;
5622;SDS011;2833;50.432;10.706;2022-10-18T00:06:27;6.20;;;4.80;;
5622;SDS011;2833;50.432;10.706;2022-10-18T00:08:53;4.77;;;4.27;;
5622;SDS011;2833;50.432;10.706;2022-10-18T00:11:18;8.20;;;4.73;;
5622;SDS011;2833;50.432;10.706;2022-10-18T00:13:43;5.60;;;4.63;;
5622;SDS011;2833;50.432;10.706;2022-10-18T00:16:10;5.17;;;4.50;;
5622;SDS011;2833;50.432;10.706;2022-10-18T00:18:36;8.47;;;4.50;;
5622;SDS011;2833;50.432;10.706;2022-10-18T00:21:02;7.50;;;5.10;;
5622;SDS011;2833;50.432;10.706;2022-10-18T00:23:28;8.50;;;4.57;;
5622;SDS011;2833;50.432;10.706;2022-10-18T00:25:58;4.83;;;3.97;;
5622;SDS011;2833;50.432;10.706;2022-10-18T00:28:23;9.27;;;4.57;;
5622;SDS011;2833;50.432;10.706;2022-10-18T00:30:48;8.00;;;4.03;;
5622;SDS011;2833;50.432;10.706;2022-10-18T00:33:13;11.30;;;4.60;;
5622;SDS011;2833;50.432;10.706;2022-10-18T00:35:39;7.93;;;5.40;;
5622;SDS011;2833;50.432;10.706;2022-10-18T00:38:04;7.60;;;4.63;;
5622;SDS011;2833;50.432;10.706;2022-10-18T00:40:29;6.20;;;5.27;;
5622;SDS011;2833;50.432;10.706;2022-10-18T00:42:54;8.60;;;4.80;;
5622;SDS011;2833;50.432;10.706;2022-10-18T00:45:21;7.23;;;5.00;;
5622;SDS011;2833;50.432;10.706;2022-10-18T00:47:50;7.80;;;5.23;;
5622;SDS011;2833;50.432;10.706;2022-10-18T00:50:15;6.77;;;5.50;;
5622;SDS011;2833;50.432;10.706;2022-10-18T00:52:42;14.80;;;5.87;;
5622;SDS011;2833;50.432;10.706;2022-10-18T00:55:09;8.90;;;4.90;;
5622;SDS011;2833;50.432;10.706;2022-10-18T00:57:35;12.17;;;7.00;;
5622;SDS011;2833;50.432;10.706;2022-10-18T01:00:01;11.77;;;7.00;;
5622;SDS011;2833;50.432;10.706;2022-10-18T01:02:26;20.03;;;7.30;;
5622;SDS011;2833;50.432;10.706;2022-10-18T01:04:52;10.77;;;7.00;;
5622;SDS011;2833;50.432;10.706;2022-10-18T01:12:55;9.50;;;4.67;;
5622;SDS011;2833;50.432;10.706;2022-10-18T01:18:03;7.40;;;5.50;;
5622;SDS011;2833;50.432;10.706;2022-10-18T01:20:42;6.53;;;5.00;;
5622;SDS011;2833;50.432;10.706;2022-10-18T01:23:16;8.30;;;5.27;;
5622;SDS011;2833;50.432;10.706;2022-10-18T01:25:49;12.53;;;5.63;;
5622;SDS011;2833;50.432;10.706;2022-10-18T01:28:27;14.13;;;5.43;;
5622;SDS011;2833;50.432;10.706;2022-10-18T01:30:58;11.83;;;5.83;;
5622;SDS011;2833;50.432;10.706;2022-10-18T01:33:41;7.00;;;5.57;;
5622;SDS011;2833;50.432;10.706;2022-10-18T01:38:42;9.47;;;5.47;;
5622;SDS011;2833;50.432;10.706;2022-10-18T01:41:08;5.67;;;5.07;;
5622;SDS011;2833;50.432;10.706;2022-10-18T01:43:35;8.23;;;5.20;;
5622;SDS011;2833;50.432;10.706;2022-10-18T01:46:01;5.60;;;5.00;;
5622;SDS011;2833;50.432;10.706;2022-10-18T01:48:27;8.67;;;5.30;;
5622;SDS011;2833;50.432;10.706;2022-10-18T01:50:53;10.10;;;5.40;;
5622;SDS011;2833;50.432;10.706;2022-10-18T01:53:36;7.07;;;4.70;;
5622;SDS011;2833;50.432;10.706;2022-10-18T01:56:09;5.27;;;4.77;;
5622;SDS011;2833;50.432;10.706;2022-10-18T01:58:45;9.20;;;4.50;;
5622;SDS011;2833;50.432;10.706;2022-10-18T02:01:21;9.13;;;5.07;;
5622;SDS011;2833;50.432;10.706;2022-10-18T02:03:49;5.80;;;4.80;;
5622;SDS011;2833;50.432;10.706;2022-10-18T02:06:19;6.47;;;4.70;;
5622;SDS011;2833;50.432;10.706;2022-10-18T02:11:12;8.37;;;4.40;;
5622;SDS011;2833;50.432;10.706;2022-10-18T02:13:39;6.30;;;5.00;;
5622;SDS011;2833;50.432;10.706;2022-10-18T02:16:09;6.47;;;5.03;;
5622;SDS011;2833;50.432;10.706;2022-10-18T02:18:36;6.70;;;4.87;;
5622;SDS011;2833;50.432;10.706;2022-10-18T02:21:02;5.97;;;4.50;;
5622;SDS011;2833;50.432;10.706;2022-10-18T02:23:29;4.77;;;4.20;;
5622;SDS011;2833;50.432;10.706;2022-10-18T02:25:55;7.53;;;3.90;;
5622;SDS011;2833;50.432;10.706;2022-10-18T02:28:20;4.80;;;4.30;;
5622;SDS011;2833;50.432;10.706;2022-10-18T02:30:57;5.57;;;4.20;;
5622;SDS011;2833;50.432;10.706;2022-10-18T02:36:16;6.20;;;4.40;;
5622;SDS011;2833;50.432;10.706;2022-10-18T02:38:42;4.67;;;4.20;;
5622;SDS011;2833;50.432;10.706;2022-10-18T02:41:09;7.43;;;4.97;;
5622;SDS011;2833;50.432;10.706;2022-10-18T02:43:34;7.50;;;4.20;;
5622;SDS011;2833;50.432;10.706;2022-10-18T02:46:00;12.70;;;4.50;;
5622;SDS011;2833;50.432;10.706;2022-10-18T02:48:25;4.97;;;4.07;;
5622;SDS011;2833;50.432;10.706;2022-10-18T02:50:51;8.93;;;4.50;;
5622;SDS011;2833;50.432;10.706;2022-10-18T02:53:16;9.60;;;4.37;;
5622;SDS011;2833;50.432;10.706;2022-10-18T02:55:41;7.77;;;4.53;;
5622;SDS011;2833;50.432;10.706;2022-10-18T02:58:06;6.53;;;4.47;;
5622;SDS011;2833;50.432;10.706;2022-10-18T03:00:31;6.80;;;4.70;;
5622;SDS011;2833;50.432;10.706;2022-10-18T03:02:57;6.80;;;4.90;;
5622;SDS011;2833;50.432;10.706;2022-10-18T03:05:22;4.63;;;4.17;;
5622;SDS011;2833;50.432;10.706;2022-10-18T03:07:47;5.03;;;4.53;;
5622;SDS011;2833;50.432;10.706;2022-10-18T03:10:12;5.73;;;4.93;;
5622;SDS011;2833;50.432;10.706;2022-10-18T03:12:37;4.50;;;4.10;;
5622;SDS011;2833;50.432;10.706;2022-10-18T03:15:03;6.73;;;4.90;;
5622;SDS011;2833;50.432;10.706;2022-10-18T03:17:28;6.23;;;4.83;;
5622;SDS011;2833;50.432;10.706;2022-10-18T03:19:53;5.60;;;4.87;;
5622;SDS011;2833;50.432;10.706;2022-10-18T03:22:18;4.50;;;4.10;;
5622;SDS011;2833;50.432;10.706;2022-10-18T03:24:44;6.03;;;4.53;;
5622;SDS011;2833;50.432;10.706;2022-10-18T03:27:09;10.90;;;4.60;;
5622;SDS011;2833;50.432;10.706;2022-10-18T03:29:34;4.87;;;4.37;;
5622;SDS011;2833;50.432;10.706;2022-10-18T03:31:59;9.73;;;4.73;;
5622;SDS011;2833;50.432;10.706;2022-10-18T03:34:25;4.50;;;4.10;;
5622;SDS011;2833;50.432;10.706;2022-10-18T03:36:50;5.70;;;4.20;;
5622;SDS011;2833;50.432;10.706;2022-10-18T03:39:15;4.97;;;4.47;;
5622;SDS011;2833;50.432;10.706;2022-10-18T03:41:40;4.90;;;4.40;;
5622;SDS011;2833;50.432;10.706;2022-10-18T03:44:06;4.40;;;4.00;;
5622;SDS011;2833;50.432;10.706;2022-10-18T03:46:31;5.87;;;3.93;;
5622;SDS011;2833;50.432;10.706;2022-10-18T03:48:56;7.97;;;4.90;;
5622;SDS011;2833;50.432;10.706;2022-10-18T03:51:21;5.97;;;4.57;;
5622;SDS011;2833;50.432;10.706;2022-10-18T03:53:46;6.00;;;4.33;;
5622;SDS011;2833;50.432;10.706;2022-10-18T03:56:12;9.63;;;5.07;;
5622;SDS011;2833;50.432;10.706;2022-10-18T03:58:37;6.63;;;4.93;;
5622;SDS011;2833;50.432;10.706;2022-10-18T04:01:02;5.30;;;4.80;;
5622;SDS011;2833;50.432;10.706;2022-10-18T04:03:27;10.53;;;4.50;;
5622;SDS011;2833;50.432;10.706;2022-10-18T04:05:53;7.20;;;4.70;;
5622;SDS011;2833;50.432;10.706;2022-10-18T04:08:18;14.13;;;4.70;;
5622;SDS011;2833;50.432;10.706;2022-10-18T04:10:44;7.50;;;4.40;;
5622;SDS011;2833;50.432;10.706;2022-10-18T04:13:09;7.20;;;4.30;;
5622;SDS011;2833;50.432;10.706;2022-10-18T04:15:34;6.73;;;4.67;;
5622;SDS011;2833;50.432;10.706;2022-10-18T04:18:00;5.97;;;4.40;;
5622;SDS011;2833;50.432;10.706;2022-10-18T04:20:25;5.27;;;4.50;;
5622;SDS011;2833;50.432;10.706;2022-10-18T04:22:51;5.37;;;4.87;;
5622;SDS011;2833;50.432;10.706;2022-10-18T04:25:18;12.07;;;5.30;;
5622;SDS011;2833;50.432;10.706;2022-10-18T04:27:44;6.57;;;5.33;;
5622;SDS011;2833;50.432;10.706;2022-10-18T04:30:09;5.67;;;4.90;;
5622;SDS011;2833;50.432;10.706;2022-10-18T04:32:34;7.10;;;5.40;;
5622;SDS011;2833;50.432;10.706;2022-10-18T04:35:00;6.53;;;4.83;;
5622;SDS011;2833;50.432;10.706;2022-10-18T04:37:25;7.03;;;5.20;;
5622;SDS011;2833;50.432;10.706;2022-10-18T04:39:51;5.33;;;4.67;;
5622;SDS011;2833;50.432;10.706;2022-10-18T04:42:16;11.23;;;5.17;;
5622;SDS011;2833;50.432;10.706;2022-10-18T04:44:41;9.90;;;5.70;;
5622;SDS011;2833;50.432;10.706;2022-10-18T04:47:06;7.90;;;5.43;;
5622;SDS011;2833;50.432;10.706;2022-10-18T04:49:31;8.23;;;4.90;;
5622;SDS011;2833;50.432;10.706;2022-10-18T04:51:57;6.13;;;4.63;;
5622;SDS011;2833;50.432;10.706;2022-10-18T04:54:22;18.67;;;5.10;;
5622;SDS011;2833;50.432;10.706;2022-10-18T04:56:47;5.97;;;4.87;;
5622;SDS011;2833;50.432;10.706;2022-10-18T04:59:12;9.93;;;5.17;;
5622;SDS011;2833;50.432;10.706;2022-10-18T05:01:38;8.00;;;4.60;;
5622;SDS011;2833;50.432;10.706;2022-10-18T05:04:03;6.33;;;4.80;;
5622;SDS011;2833;50.432;10.706;2022-10-18T05:06:28;6.00;;;4.60;;
5622;SDS011;2833;50.432;10.706;2022-10-18T05:08:53;6.87;;;4.87;;
5622;SDS011;2833;50.432;10.706;2022-10-18T05:11:19;17.23;;;4.63;;
5622;SDS011;2833;50.432;10.706;2022-10-18T05:13:44;11.30;;;5.17;;
5622;SDS011;2833;50.432;10.706;2022-10-18T05:16:09;6.77;;;5.00;;
5622;SDS011;2833;50.432;10.706;2022-10-18T05:18:35;10.80;;;7.83;;
5622;SDS011;2833;50.432;10.706;2022-10-18T05:21:00;8.00;;;6.40;;
5622;SDS011;2833;50.432;10.706;2022-10-18T05:23:25;10.73;;;6.70;;
5622;SDS011;2833;50.432;10.706;2022-10-18T05:25:51;13.10;;;5.30;;
5622;SDS011;2833;50.432;10.706;2022-10-18T05:28:16;7.30;;;5.60;;
5622;SDS011;2833;50.432;10.706;2022-10-18T05:30:41;11.00;;;5.30;;
5622;SDS011;2833;50.432;10.706;2022-10-18T05:33:07;6.17;;;5.30;;
5622;SDS011;2833;50.432;10.706;2022-10-18T05:35:32;6.73;;;5.03;;
5622;SDS011;2833;50.432;10.706;2022-10-18T05:37:59;8.70;;;5.87;;
5622;SDS011;2833;50.432;10.706;2022-10-18T05:40:25;6.23;;;5.60;;
5622;SDS011;2833;50.432;10.706;2022-10-18T05:42:51;10.67;;;5.77;;
5622;SDS011;2833;50.432;10.706;2022-10-18T05:45:16;8.83;;;6.00;;
5622;SDS011;2833;50.432;10.706;2022-10-18T05:47:41;12.80;;;6.70;;
5622;SDS011;2833;50.432;10.706;2022-10-18T05:50:07;11.13;;;6.83;;
5622;SDS011;2833;50.432;10.706;2022-10-18T05:52:32;9.60;;;7.57;;
5622;SDS011;2833;50.432;10.706;2022-10-18T05:54:57;11.77;;;8.90;;
5622;SDS011;2833;50.432;10.706;2022-10-18T05:57:22;10.23;;;7.33;;
5622;SDS011;2833;50.432;10.706;2022-10-18T05:59:48;7.93;;;6.20;;
5622;SDS011;2833;50.432;10.706;2022-10-18T06:02:13;9.40;;;6.73;;
5622;SDS011;2833;50.432;10.706;2022-10-18T06:04:38;8.70;;;6.57;;
5622;SDS011;2833;50.432;10.706;2022-10-18T06:07:07;8.00;;;6.60;;
5622;SDS011;2833;50.432;10.706;2022-10-18T06:09:32;7.20;;;6.20;;
5622;SDS011;2833;50.432;10.706;2022-10-18T06:11:58;9.63;;;6.57;;
5622;SDS011;2833;50.432;10.706;2022-10-18T06:14:23;8.40;;;6.57;;
5622;SDS011;2833;50.432;10.706;2022-10-18T06:16:48;10.40;;;8.00;;
5622;SDS011;2833;50.432;10.706;2022-10-18T06:19:14;13.00;;;8.80;;
5622;SDS011;2833;50.432;10.706;2022-10-18T06:21:39;11.53;;;7.87;;
5622;SDS011;2833;50.432;10.706;2022-10-18T06:24:05;10.30;;;7.90;;
5622;SDS011;2833;50.432;10.706;2022-10-18T06:26:30;14.33;;;7.13;;
5622;SDS011;2833;50.432;10.706;2022-10-18T06:28:55;12.30;;;7.70;;
5622;SDS011;2833;50.432;10.706;2022-10-18T06:31:21;10.93;;;7.90;;
5622;SDS011;2833;50.432;10.706;2022-10-18T06:33:46;10.37;;;7.13;;
5622;SDS011;2833;50.432;10.706;2022-10-18T06:36:12;14.13;;;7.93;;
5622;SDS011;2833;50.432;10.706;2022-10-18T06:38:38;9.93;;;7.40;;
5622;SDS011;2833;50.432;10.706;2022-10-18T06:41:03;10.50;;;8.40;;
5622;SDS011;2833;50.432;10.706;2022-10-18T06:43:29;13.33;;;7.67;;
5622;SDS011;2833;50.432;10.706;2022-10-18T06:45:54;14.17;;;8.17;;
5622;SDS011;2833;50.432;10.706;2022-10-18T06:48:20;18.50;;;7.60;;
5622;SDS011;2833;50.432;10.706;2022-10-18T06:50:55;11.70;;;7.90;;
5622;SDS011;2833;50.432;10.706;2022-10-18T06:53:24;11.60;;;8.83;;
5622;SDS011;2833;50.432;10.706;2022-10-18T06:55:49;21.93;;;9.03;;
5622;SDS011;2833;50.432;10.706;2022-10-18T06:58:14;10.43;;;8.40;;
5622;SDS011;2833;50.432;10.706;2022-10-18T07:00:40;11.00;;;8.67;;
5622;SDS011;2833;50.432;10.706;2022-10-18T07:03:05;13.20;;;8.77;;
5622;SDS011;2833;50.432;10.706;2022-10-18T07:05:30;13.23;;;9.43;;
5622;SDS011;2833;50.432;10.706;2022-10-18T07:07:56;12.83;;;8.63;;
5622;SDS011;2833;50.432;10.706;2022-10-18T07:10:21;13.60;;;8.40;;
5622;SDS011;2833;50.432;10.706;2022-10-18T07:12:46;14.00;;;9.00;;
5622;SDS011;2833;50.432;10.706;2022-10-18T07:15:11;11.50;;;8.87;;
5622;SDS011;2833;50.432;10.706;2022-10-18T07:17:37;12.37;;;9.17;;
5622;SDS011;2833;50.432;10.706;2022-10-18T07:20:02;11.97;;;8.50;;
5622;SDS011;2833;50.432;10.706;2022-10-18T07:22:28;12.00;;;9.70;;
5622;SDS011;2833;50.432;10.706;2022-10-18T07:24:53;21.20;;;9.20;;
5622;SDS011;2833;50.432;10.706;2022-10-18T07:27:18;12.60;;;9.60;;
5622;SDS011;2833;50.432;10.706;2022-10-18T07:29:44;15.97;;;9.90;;
5622;SDS011;2833;50.432;10.706;2022-10-18T07:32:09;15.10;;;9.90;;
5622;SDS011;2833;50.432;10.706;2022-10-18T07:34:34;15.47;;;9.50;;
5622;SDS011;2833;50.432;10.706;2022-10-18T07:37:00;14.70;;;10.20;;
5622;SDS011;2833;50.432;10.706;2022-10-18T07:39:25;16.00;;;10.20;;
5622;SDS011;2833;50.432;10.706;2022-10-18T07:41:50;13.77;;;10.57;;
5622;SDS011;2833;50.432;10.706;2022-10-18T07:44:16;17.50;;;11.00;;
5622;SDS011;2833;50.432;10.706;2022-10-18T07:46:41;15.47;;;10.47;;
5622;SDS011;2833;50.432;10.706;2022-10-18T07:49:06;12.83;;;10.07;;
5622;SDS011;2833;50.432;10.706;2022-10-18T07:51:31;11.03;;;9.30;;
5622;SDS011;2833;50.432;10.706;2022-10-18T07:53:58;13.70;;;9.87;;
5622;SDS011;2833;50.432;10.706;2022-10-18T07:56:23;20.33;;;10.17;;
5622;SDS011;2833;50.432;10.706;2022-10-18T07:58:50;19.70;;;12.13;;
5622;SDS011;2833;50.432;10.706;2022-10-18T08:01:15;18.27;;;11.27;;
5622;SDS011;2833;50.432;10.706;2022-10-18T08:03:41;16.30;;;10.40;;
5622;SDS011;2833;50.432;10.706;2022-10-18T08:06:07;14.80;;;10.70;;
5622;SDS011;2833;50.432;10.706;2022-10-18T08:08:33;17.03;;;11.00;;
5622;SDS011;2833;50.432;10.706;2022-10-18T08:11:03;15.43;;;10.77;;
5622;SDS011;2833;50.432;10.706;2022-10-18T08:13:28;23.10;;;14.63;;
5622;SDS011;2833;50.432;10.706;2022-10-18T08:16:04;18.50;;;14.40;;
5622;SDS011;2833;50.432;10.706;2022-10-18T08:18:30;22.30;;;14.93;;
5622;SDS011;2833;50.432;10.706;2022-10-18T08:20:57;15.63;;;12.20;;
5622;SDS011;2833;50.432;10.706;2022-10-18T08:23:23;20.83;;;13.17;;
5622;SDS011;2833;50.432;10.706;2022-10-18T08:25:48;21.23;;;15.10;;
5622;SDS011;2833;50.432;10.706;2022-10-18T08:28:13;19.10;;;12.83;;
5622;SDS011;2833;50.432;10.706;2022-10-18T08:30:38;17.20;;;12.90;;
5622;SDS011;2833;50.432;10.706;2022-10-18T08:33:04;16.73;;;12.30;;
5622;SDS011;2833;50.432;10.706;2022-10-18T08:35:29;21.33;;;12.50;;
5622;SDS011;2833;50.432;10.706;2022-10-18T08:37:55;26.37;;;14.57;;
5622;SDS011;2833;50.432;10.706;2022-10-18T08:40:20;20.83;;;15.23;;
5622;SDS011;2833;50.432;10.706;2022-10-18T08:45:22;21.60;;;13.67;;
5622;SDS011;2833;50.432;10.706;2022-10-18T08:47:47;21.90;;;14.30;;
5622;SDS011;2833;50.432;10.706;2022-10-18T08:50:19;29.83;;;16.30;;
5622;SDS011;2833;50.432;10.706;2022-10-18T08:53:03;24.77;;;13.00;;
5622;SDS011;2833;50.432;10.706;2022-10-18T08:58:06;24.60;;;14.90;;
5622;SDS011;2833;50.432;10.706;2022-10-18T09:00:37;19.60;;;13.33;;
5622;SDS011;2833;50.432;10.706;2022-10-18T09:05:47;20.70;;;12.67;;
5622;SDS011;2833;50.432;10.706;2022-10-18T09:18:15;24.80;;;16.00;;
5622;SDS011;2833;50.432;10.706;2022-10-18T09:20:49;24.53;;;15.40;;
5622;SDS011;2833;50.432;10.706;2022-10-18T09:25:45;20.50;;;14.00;;
5622;SDS011;2833;50.432;10.706;2022-10-18T09:30:58;18.63;;;12.50;;
5622;SDS011;2833;50.432;10.706;2022-10-18T09:33:47;20.33;;;13.57;;
5622;SDS011;2833;50.432;10.706;2022-10-18T09:36:15;17.73;;;12.37;;
5622;SDS011;2833;50.432;10.706;2022-10-18T09:38:48;20.73;;;14.20;;
5622;SDS011;2833;50.432;10.706;2022-10-18T09:42:00;23.60;;;13.80;;
5622;SDS011;2833;50.432;10.706;2022-10-18T09:44:01;18.17;;;13.33;;
5622;SDS011;2833;50.432;10.706;2022-10-18T09:46:31;17.30;;;13.47;;
5622;SDS011;2833;50.432;10.706;2022-10-18T09:48:59;21.80;;;15.50;;
5622;SDS011;2833;50.432;10.706;2022-10-18T09:51:27;22.20;;;15.00;;
5622;SDS011;2833;50.432;10.706;2022-10-18T09:54:05;21.23;;;14.77;;
5622;SDS011;2833;50.432;10.706;2022-10-18T09:59:04;39.43;;;21.37;;
5622;SDS011;2833;50.432;10.706;2022-10-18T10:01:31;24.03;;;16.80;;
5622;SDS011;2833;50.432;10.706;2022-10-18T10:03:57;22.87;;;15.20;;
5622;SDS011;2833;50.432;10.706;2022-10-18T10:06:30;26.37;;;15.93;;
5622;SDS011;2833;50.432;10.706;2022-10-18T10:09:06;23.10;;;16.03;;
5622;SDS011;2833;50.432;10.706;2022-10-18T10:11:33;27.80;;;16.90;;
5622;SDS011;2833;50.432;10.706;2022-10-18T10:14:11;26.43;;;17.00;;
5622;SDS011;2833;50.432;10.706;2022-10-18T10:19:18;24.93;;;16.30;;
5622;SDS011;2833;50.432;10.706;2022-10-18T10:21:43;23.70;;;16.27;;
5622;SDS011;2833;50.432;10.706;2022-10-18T10:24:15;60.80;;;18.50;;
5622;SDS011;2833;50.432;10.706;2022-10-18T10:26:43;26.07;;;17.40;;
5622;SDS011;2833;50.432;10.706;2022-10-18T10:32:02;31.47;;;20.43;;
5622;SDS011;2833;50.432;10.706;2022-10-18T10:34:28;34.13;;;18.97;;
5622;SDS011;2833;50.432;10.706;2022-10-18T10:36:53;30.73;;;18.27;;
5622;SDS011;2833;50.432;10.706;2022-10-18T10:39:19;32.13;;;21.43;;
5622;SDS011;2833;50.432;10.706;2022-10-18T10:44:14;27.23;;;17.07;;
5622;SDS011;2833;50.432;10.706;2022-10-18T10:46:40;34.40;;;18.13;;
5622;SDS011;2833;50.432;10.706;2022-10-18T10:49:05;24.80;;;17.40;;
5622;SDS011;2833;50.432;10.706;2022-10-18T10:51:37;27.93;;;18.13;;
5622;SDS011;2833;50.432;10.706;2022-10-18T10:58:53;25.90;;;17.30;;
5622;SDS011;2833;50.432;10.706;2022-10-18T11:01:21;28.80;;;17.90;;
5622;SDS011;2833;50.432;10.706;2022-10-18T11:03:47;28.77;;;17.50;;
5622;SDS011;2833;50.432;10.706;2022-10-18T11:08:56;26.70;;;17.20;;
5622;SDS011;2833;50.432;10.706;2022-10-18T11:11:24;28.57;;;17.73;;
5622;SDS011;2833;50.432;10.706;2022-10-18T11:13:55;31.07;;;18.60;;
5622;SDS011;2833;50.432;10.706;2022-10-18T11:16:31;24.70;;;16.77;;
5622;SDS011;2833;50.432;10.706;2022-10-18T11:18:56;24.23;;;17.03;;
5622;SDS011;2833;50.432;10.706;2022-10-18T11:21:24;38.47;;;24.13;;
5622;SDS011;2833;50.432;10.706;2022-10-18T11:23:51;28.10;;;16.87;;
5622;SDS011;2833;50.432;10.706;2022-10-18T11:27:02;37.70;;;19.90;;
5622;SDS011;2833;50.432;10.706;2022-10-18T11:31:51;22.20;;;15.43;;
5622;SDS011;2833;50.432;10.706;2022-10-18T11:44:38;23.67;;;15.20;;
5622;SDS011;2833;50.432;10.706;2022-10-18T11:55:04;17.67;;;11.90;;
5622;SDS011;2833;50.432;10.706;2022-10-18T12:04:56;17.83;;;12.87;;
5622;SDS011;2833;50.432;10.706;2022-10-18T12:07:23;17.07;;;11.83;;
5622;SDS011;2833;50.432;10.706;2022-10-18T12:09:49;22.77;;;11.57;;
5622;SDS011;2833;50.432;10.706;2022-10-18T12:14:51;19.13;;;11.90;;
5622;SDS011;2833;50.432;10.706;2022-10-18T12:17:19;15.10;;;10.33;;
5622;SDS011;2833;50.432;10.706;2022-10-18T12:19:45;17.40;;;9.93;;
5622;SDS011;2833;50.432;10.706;2022-10-18T12:24:39;12.93;;;9.23;;
5622;SDS011;2833;50.432;10.706;2022-10-18T12:27:07;12.63;;;9.10;;
5622;SDS011;2833;50.432;10.706;2022-10-18T12:32:07;12.43;;;8.70;;
5622;SDS011;2833;50.432;10.706;2022-10-18T12:35:19;13.23;;;8.40;;
5622;SDS011;2833;50.432;10.706;2022-10-18T12:39:58;12.90;;;9.27;;
5622;SDS011;2833;50.432;10.706;2022-10-18T12:42:26;13.33;;;9.00;;
5622;SDS011;2833;50.432;10.706;2022-10-18T12:45:05;12.87;;;9.53;;
5622;SDS011;2833;50.432;10.706;2022-10-18T12:47:40;13.97;;;9.60;;
5622;SDS011;2833;50.432;10.706;2022-10-18T12:50:06;13.20;;;10.00;;
5622;SDS011;2833;50.432;10.706;2022-10-18T12:52:32;12.73;;;9.60;;
5622;SDS011;2833;50.432;10.706;2022-10-18T12:55:06;13.00;;;8.80;;
5622;SDS011;2833;50.432;10.706;2022-10-18T13:10:47;9.90;;;6.37;;
5622;SDS011;2833;50.432;10.706;2022-10-18T13:21:26;6.13;;;4.90;;
5622;SDS011;2833;50.432;10.706;2022-10-18T13:24:12;2.80;;;2.60;;
5622;SDS011;2833;50.432;10.706;2022-10-18T13:26:43;4.60;;;3.87;;
5622;SDS011;2833;50.432;10.706;2022-10-18T13:34:33;2.73;;;2.53;;
5622;SDS011;2833;50.432;10.706;2022-10-18T13:37:03;4.63;;;3.90;;
5622;SDS011;2833;50.432;10.706;2022-10-18T13:39:29;2.43;;;2.23;;
5622;SDS011;2833;50.432;10.706;2022-10-18T13:49:30;2.50;;;2.30;;
5622;SDS011;2833;50.432;10.706;2022-10-18T13:52:19;2.30;;;2.20;;
5622;SDS011;2833;50.432;10.706;2022-10-18T13:59:55;1.80;;;1.70;;
5622;SDS011;2833;50.432;10.706;2022-10-18T14:02:32;2.00;;;1.20;;
5622;SDS011;2833;50.432;10.706;2022-10-18T14:07:32;1.53;;;1.43;;
5622;SDS011;2833;50.432;10.706;2022-10-18T14:09:58;3.47;;;1.43;;
5622;SDS011;2833;50.432;10.706;2022-10-18T14:12:28;1.70;;;1.60;;
5622;SDS011;2833;50.432;10.706;2022-10-18T14:15:04;4.07;;;3.23;;
5622;SDS011;2833;50.432;10.706;2022-10-18T14:20:21;2.00;;;1.90;;
5622;SDS011;2833;50.432;10.706;2022-10-18T14:23:00;1.30;;;1.20;;
5622;SDS011;2833;50.432;10.706;2022-10-18T14:30:29;1.87;;;1.77;;
5622;SDS011;2833;50.432;10.706;2022-10-18T14:32:54;2.13;;;1.80;;
5622;SDS011;2833;50.432;10.706;2022-10-18T14:35:20;1.30;;;1.20;;
5622;SDS011;2833;50.432;10.706;2022-10-18T14:37:47;2.87;;;2.67;;
5622;SDS011;2833;50.432;10.706;2022-10-18T14:42:53;5.73;;;2.17;;
5622;SDS011;2833;50.432;10.706;2022-10-18T14:45:18;3.00;;;2.70;;
5622;SDS011;2833;50.432;10.706;2022-10-18T14:47:44;2.03;;;1.93;;
5622;SDS011;2833;50.432;10.706;2022-10-18T14:50:23;1.97;;;1.87;;
5622;SDS011;2833;50.432;10.706;2022-10-18T14:52:50;3.03;;;2.80;;
5622;SDS011;2833;50.432;10.706;2022-10-18T14:55:22;2.83;;;2.60;;
5622;SDS011;2833;50.432;10.706;2022-10-18T14:57:47;2.63;;;2.43;;
5622;SDS011;2833;50.432;10.706;2022-10-18T15:00:18;3.20;;;2.53;;
5622;SDS011;2833;50.432;10.706;2022-10-18T15:02:44;2.33;;;2.13;;
5622;SDS011;2833;50.432;10.706;2022-10-18T15:05:19;3.00;;;2.37;;
5622;SDS011;2833;50.432;10.706;2022-10-18T15:07:44;2.47;;;2.27;;
5622;SDS011;2833;50.432;10.706;2022-10-18T15:10:14;1.73;;;1.63;;
5622;SDS011;2833;50.432;10.706;2022-10-18T15:12:40;6.20;;;2.93;;
5622;SDS011;2833;50.432;10.706;2022-10-18T15:15:06;5.00;;;2.70;;
5622;SDS011;2833;50.432;10.706;2022-10-18T15:17:38;2.67;;;2.47;;
5622;SDS011;2833;50.432;10.706;2022-10-18T15:20:26;1.60;;;1.50;;
5622;SDS011;2833;50.432;10.706;2022-10-18T15:22:50;2.97;;;2.50;;
5622;SDS011;2833;50.432;10.706;2022-10-18T15:25:27;2.20;;;2.00;;
5622;SDS011;2833;50.432;10.706;2022-10-18T15:27:58;1.57;;;1.47;;
5622;SDS011;2833;50.432;10.706;2022-10-18T15:30:42;1.60;;;1.50;;
5622;SDS011;2833;50.432;10.706;2022-10-18T15:33:07;2.00;;;1.90;;
5622;SDS011;2833;50.432;10.706;2022-10-18T15:35:36;2.10;;;2.00;;
5622;SDS011;2833;50.432;10.706;2022-10-18T15:40:39;1.50;;;1.40;;
5622;SDS011;2833;50.432;10.706;2022-10-18T15:43:50;2.23;;;1.90;;
5622;SDS011;2833;50.432;10.706;2022-10-18T15:45:51;2.10;;;2.00;;
5622;SDS011;2833;50.432;10.706;2022-10-18T15:48:19;1.87;;;1.77;;
5622;SDS011;2833;50.432;10.706;2022-10-18T15:50:46;4.47;;;1.80;;
5622;SDS011;2833;50.432;10.706;2022-10-18T15:53:21;1.80;;;1.70;;
5622;SDS011;2833;50.432;10.706;2022-10-18T15:58:17;1.47;;;1.37;;
5622;SDS011;2833;50.432;10.706;2022-10-18T16:00:43;1.80;;;1.70;;
5622;SDS011;2833;50.432;10.706;2022-10-18T16:03:09;1.83;;;1.63;;
5622;SDS011;2833;50.432;10.706;2022-10-18T16:05:35;1.90;;;1.80;;
5622;SDS011;2833;50.432;10.706;2022-10-18T16:08:01;1.70;;;1.60;;
5622;SDS011;2833;50.432;10.706;2022-10-18T16:10:26;2.33;;;2.13;;
5622;SDS011;2833;50.432;10.706;2022-10-18T16:12:51;2.00;;;1.90;;
5622;SDS011;2833;50.432;10.706;2022-10-18T16:15:16;1.90;;;1.80;;
5622;SDS011;2833;50.432;10.706;2022-10-18T16:17:42;2.30;;;2.10;;
5622;SDS011;2833;50.432;10.706;2022-10-18T16:20:12;2.30;;;2.10;;
5622;SDS011;2833;50.432;10.706;2022-10-18T16:22:42;4.90;;;3.37;;
5622;SDS011;2833;50.432;10.706;2022-10-18T16:25:07;4.33;;;3.17;;
5622;SDS011;2833;50.432;10.706;2022-10-18T16:27:33;4.90;;;4.10;;
5622;SDS011;2833;50.432;10.706;2022-10-18T16:29:58;4.10;;;3.53;;
5622;SDS011;2833;50.432;10.706;2022-10-18T16:32:23;4.60;;;4.07;;
5622;SDS011;2833;50.432;10.706;2022-10-18T16:34:48;4.33;;;3.60;;
5622;SDS011;2833;50.432;10.706;2022-10-18T16:37:13;6.40;;;5.07;;
5622;SDS011;2833;50.432;10.706;2022-10-18T16:39:39;8.00;;;4.87;;
5622;SDS011;2833;50.432;10.706;2022-10-18T16:42:04;2.70;;;2.50;;
5622;SDS011;2833;50.432;10.706;2022-10-18T16:44:29;8.17;;;4.83;;
5622;SDS011;2833;50.432;10.706;2022-10-18T16:46:54;11.50;;;6.80;;
5622;SDS011;2833;50.432;10.706;2022-10-18T16:49:20;6.07;;;4.43;;
5622;SDS011;2833;50.432;10.706;2022-10-18T16:51:47;5.20;;;4.70;;
5622;SDS011;2833;50.432;10.706;2022-10-18T16:54:13;4.97;;;3.90;;
5622;SDS011;2833;50.432;10.706;2022-10-18T16:56:38;3.50;;;3.20;;
5622;SDS011;2833;50.432;10.706;2022-10-18T16:59:04;3.07;;;2.70;;
5622;SDS011;2833;50.432;10.706;2022-10-18T17:01:29;2.23;;;2.03;;
5622;SDS011;2833;50.432;10.706;2022-10-18T17:03:54;1.80;;;1.70;;
5622;SDS011;2833;50.432;10.706;2022-10-18T17:06:21;2.20;;;2.00;;
5622;SDS011;2833;50.432;10.706;2022-10-18T17:08:47;2.40;;;2.20;;
5622;SDS011;2833;50.432;10.706;2022-10-18T17:11:12;4.90;;;3.83;;
5622;SDS011;2833;50.432;10.706;2022-10-18T17:13:38;10.80;;;6.87;;
5622;SDS011;2833;50.432;10.706;2022-10-18T17:16:04;30.80;;;16.00;;
5622;SDS011;2833;50.432;10.706;2022-10-18T17:18:29;13.37;;;10.07;;
5622;SDS011;2833;50.432;10.706;2022-10-18T17:20:58;51.93;;;29.10;;
5622;SDS011;2833;50.432;10.706;2022-10-18T17:23:25;18.87;;;12.50;;
5622;SDS011;2833;50.432;10.706;2022-10-18T17:25:50;10.93;;;7.70;;
5622;SDS011;2833;50.432;10.706;2022-10-18T17:28:16;10.23;;;6.30;;